Time;durP1;ratioP1;P1;durP2;ratioP2;P2;SDS_P1;SDS_P2;PMS_P1;PMS_P2;Temp;Humidity;BMP_temperature;BMP_pressure;BME280_temperature;BME280_humidity;BME280_pressure;Samples;Min_cycle;Max_cycle;Signal;HPM_P1;HPM_P2
2022/12/20 03:47:47;;;;;;;12.75;5.35;;;3.40;96.90;;;;;;5195878;23;87269;-69
2022/12/20 03:50:14;;;;;;;17.75;5.78;;;3.40;97.10;;;;;;4918810;28;86713;-69
2022/12/20 03:52:39;;;;;;;11.70;5.38;;;3.50;97.40;;;;;;4914481;28;89299;-69
2022/12/20 03:55:06;;;;;;;10.88;3.75;;;3.50;97.20;;;;;;4918574;28;87881;-70
2022/12/20 03:57:31;;;;;;;10.80;3.75;;;3.60;97.30;;;;;;4914673;28;86873;-68
2022/12/20 03:59:57;;;;;;;8.77;3.30;;;3.70;96.80;;;;;;4915907;28;86557;-70
2022/12/20 04:02:23;;;;;;;13.90;4.45;;;3.80;96.50;;;;;;4919095;28;86725;-70
2022/12/20 04:04:49;;;;;;;15.85;5.72;;;3.90;96.20;;;;;;4918648;28;86714;-69
2022/12/20 04:07:14;;;;;;;14.93;6.13;;;3.90;95.80;;;;;;4917922;28;86642;-69
2022/12/20 04:09:40;;;;;;;18.48;6.75;;;3.90;96.00;;;;;;4918717;28;85630;-69
2022/12/20 04:12:06;;;;;;;15.35;6.40;;;3.80;95.80;;;;;;4918756;28;87097;-68
2022/12/20 04:14:32;;;;;;;19.23;6.95;;;3.90;95.90;;;;;;4916214;28;86925;-69
2022/12/20 04:16:58;;;;;;;17.23;6.57;;;3.80;96.20;;;;;;4917826;28;87468;-69
2022/12/20 04:19:24;;;;;;;14.75;7.03;;;3.80;96.60;;;;;;4917229;28;87102;-69
2022/12/20 04:21:50;;;;;;;20.25;7.43;;;3.70;96.70;;;;;;4916593;28;86724;-69
2022/12/20 04:24:16;;;;;;;16.70;5.78;;;3.60;97.50;;;;;;4916514;28;86312;-69
2022/12/20 04:26:42;;;;;;;11.55;4.82;;;3.60;97.60;;;;;;4917208;28;86744;-70
2022/12/20 04:29:07;;;;;;;7.38;3.15;;;3.60;97.20;;;;;;4915745;28;86609;-70
2022/12/20 04:31:33;;;;;;;8.10;3.15;;;3.50;97.20;;;;;;4915839;28;86796;-69
2022/12/20 04:33:59;;;;;;;8.05;3.20;;;3.50;97.30;;;;;;4912502;28;86852;-68
2022/12/20 04:36:24;;;;;;;10.88;3.20;;;3.50;97.10;;;;;;4913841;28;86326;-69
2022/12/20 04:38:50;;;;;;;11.77;3.28;;;3.50;97.20;;;;;;4915491;28;86997;-68
2022/12/20 04:41:22;;;;;;;6.93;2.67;;;3.60;96.70;;;;;;4917198;28;88035;-69
2022/12/20 04:43:52;;;;;;;8.90;3.40;;;3.60;96.60;;;;;;4911324;28;87772;-69
2022/12/20 04:46:18;;;;;;;15.85;5.22;;;3.50;96.40;;;;;;4905384;28;86740;-69
2022/12/20 04:48:44;;;;;;;8.27;3.55;;;3.60;96.40;;;;;;4888001;28;86485;-71
2022/12/20 04:51:10;;;;;;;10.00;3.42;;;3.60;96.40;;;;;;4906570;28;87097;-68
2022/12/20 04:53:48;;;;;;;8.23;2.90;;;3.60;96.40;;;;;;4902224;28;86867;-69
2022/12/20 04:56:21;;;;;;;8.80;2.75;;;3.50;96.40;;;;;;4887629;28;86439;-68
2022/12/20 04:58:48;;;;;;;12.15;3.22;;;3.60;96.30;;;;;;4894074;28;85701;-70
2022/12/20 05:01:14;;;;;;;7.60;3.00;;;3.60;96.40;;;;;;4880625;28;86754;-69
2022/12/20 05:03:40;;;;;;;9.32;3.20;;;3.60;96.30;;;;;;4893037;28;86947;-69
2022/12/20 05:06:07;;;;;;;9.88;3.45;;;3.60;96.20;;;;;;4898191;28;87872;-68
2022/12/20 05:08:33;;;;;;;15.25;5.35;;;3.70;96.40;;;;;;4894157;28;86297;-70
2022/12/20 05:10:59;;;;;;;18.35;7.38;;;3.70;96.40;;;;;;4889099;28;87177;-69
2022/12/20 05:13:25;;;;;;;22.02;8.35;;;3.70;96.70;;;;;;4891388;28;86800;-69
2022/12/20 05:15:52;;;;;;;22.63;9.10;;;3.70;97.50;;;;;;4891702;28;86650;-68
2022/12/20 05:18:18;;;;;;;24.50;9.90;;;3.70;98.20;;;;;;4889541;28;86685;-68
2022/12/20 05:20:44;;;;;;;24.77;9.50;;;3.60;98.50;;;;;;4898006;28;87435;-68
2022/12/20 05:28:39;;;;;;;26.88;9.20;;;3.60;98.70;;;;;;4888697;28;86725;-68
2022/12/20 05:31:05;;;;;;;29.23;9.07;;;3.60;99.10;;;;;;4894711;28;88395;-68
2022/12/20 05:33:31;;;;;;;20.58;8.27;;;3.60;99.10;;;;;;4898911;28;87286;-69
2022/12/20 05:35:56;;;;;;;24.70;8.93;;;3.50;99.10;;;;;;4895160;28;86395;-69
2022/12/20 05:38:23;;;;;;;26.70;9.68;;;3.50;99.30;;;;;;4896492;28;86965;-70
2022/12/20 05:40:50;;;;;;;26.05;9.02;;;3.50;99.60;;;;;;4894227;28;87849;-70
2022/12/20 05:43:17;;;;;;;27.35;9.00;;;3.60;99.40;;;;;;4897261;28;86743;-70
2022/12/20 05:46:00;;;;;;;24.40;8.48;;;3.60;99.60;;;;;;4887516;28;86602;-70
2022/12/20 05:48:26;;;;;;;23.42;8.65;;;3.60;99.30;;;;;;4889055;28;85751;-69
2022/12/20 05:50:52;;;;;;;22.38;8.57;;;3.60;98.70;;;;;;4891517;28;86595;-69
2022/12/20 05:53:18;;;;;;;19.30;6.03;;;3.60;99.30;;;;;;4888147;28;87017;-70
2022/12/20 05:55:48;;;;;;;17.25;6.78;;;3.50;99.40;;;;;;4891370;28;87513;-69
2022/12/20 05:58:14;;;;;;;16.58;5.57;;;3.50;99.00;;;;;;4891492;28;87099;-69
2022/12/20 06:00:41;;;;;;;14.73;5.10;;;3.40;98.70;;;;;;4895949;28;87121;-69
2022/12/20 06:03:08;;;;;;;11.02;4.72;;;3.30;98.60;;;;;;4896951;28;86976;-69
2022/12/20 06:05:38;;;;;;;12.70;4.47;;;3.30;98.60;;;;;;4894452;28;86859;-70
2022/12/20 06:08:05;;;;;;;11.23;3.97;;;3.30;98.60;;;;;;4885728;28;87348;-69
2022/12/20 06:10:31;;;;;;;9.38;3.80;;;3.20;98.50;;;;;;4888846;28;86718;-70
2022/12/20 06:12:58;;;;;;;9.18;3.85;;;3.20;98.50;;;;;;4894660;28;86285;-69
2022/12/20 06:15:24;;;;;;;10.30;3.67;;;3.30;98.50;;;;;;4895275;28;86405;-69
2022/12/20 06:17:50;;;;;;;11.02;4.25;;;3.20;98.20;;;;;;4890811;28;86556;-69
2022/12/20 06:20:15;;;;;;;9.88;3.88;;;3.20;98.20;;;;;;4876451;28;87712;-70
2022/12/20 06:22:41;;;;;;;9.63;3.53;;;3.20;98.10;;;;;;4879943;28;88069;-69
2022/12/20 06:25:08;;;;;;;8.98;3.72;;;3.20;98.00;;;;;;4875350;28;86830;-69
2022/12/20 06:27:35;;;;;;;8.40;3.80;;;3.20;97.70;;;;;;4897177;28;86904;-70
2022/12/20 06:30:01;;;;;;;12.23;4.05;;;3.20;97.80;;;;;;4889711;28;87266;-69
2022/12/20 06:32:27;;;;;;;9.32;3.97;;;3.30;98.00;;;;;;4895228;28;88438;-70
2022/12/20 06:34:52;;;;;;;8.60;4.22;;;3.30;97.90;;;;;;4892533;28;86758;-69
2022/12/20 06:37:18;;;;;;;8.55;3.25;;;3.30;97.80;;;;;;4888980;28;86092;-69
2022/12/20 06:39:43;;;;;;;10.63;4.18;;;3.30;97.70;;;;;;4891855;28;86785;-70
2022/12/20 06:42:09;;;;;;;8.75;3.72;;;3.20;97.70;;;;;;4907300;28;87124;-70
2022/12/20 06:44:35;;;;;;;10.13;4.53;;;3.20;98.00;;;;;;4893068;28;87562;-71
2022/12/20 06:47:01;;;;;;;10.32;4.38;;;3.30;98.00;;;;;;4886800;28;86835;-70
2022/12/20 06:49:26;;;;;;;8.90;3.53;;;3.20;98.30;;;;;;4890705;28;87369;-69
2022/12/20 06:51:52;;;;;;;9.55;3.15;;;3.20;98.30;;;;;;4890943;28;86659;-71
2022/12/20 06:54:18;;;;;;;7.88;2.90;;;3.30;98.30;;;;;;4874184;28;87160;-70
2022/12/20 06:56:43;;;;;;;10.55;3.35;;;3.30;98.20;;;;;;4889962;28;87544;-70
2022/12/20 06:59:09;;;;;;;7.40;2.50;;;3.40;97.80;;;;;;4888256;28;86760;-71
2022/12/20 07:01:34;;;;;;;6.93;2.30;;;3.50;97.60;;;;;;4894513;28;86277;-70
2022/12/20 07:04:00;;;;;;;9.00;2.63;;;3.60;97.30;;;;;;4886476;28;87620;-70
2022/12/20 07:06:27;;;;;;;6.97;2.55;;;3.70;97.00;;;;;;4890418;28;86607;-71
2022/12/20 07:08:54;;;;;;;6.65;2.25;;;3.70;96.80;;;;;;4888944;28;89187;-70
2022/12/20 07:11:19;;;;;;;5.32;2.33;;;3.70;96.80;;;;;;4892984;28;87139;-71
2022/12/20 07:13:45;;;;;;;6.60;2.35;;;3.70;96.70;;;;;;4890716;28;86751;-70
2022/12/20 07:16:10;;;;;;;5.38;1.95;;;3.70;96.60;;;;;;4894681;28;86697;-71
2022/12/20 07:18:36;;;;;;;6.25;2.80;;;3.70;96.50;;;;;;4893849;28;87299;-70
2022/12/20 07:21:04;;;;;;;14.88;5.40;;;3.80;96.50;;;;;;4893823;28;87022;-70
2022/12/20 07:23:30;;;;;;;15.85;6.45;;;3.80;96.30;;;;;;4897144;28;86616;-70
2022/12/20 07:25:57;;;;;;;14.60;6.40;;;3.80;96.30;;;;;;4895480;28;85789;-70
2022/12/20 07:28:24;;;;;;;17.33;7.28;;;3.70;96.20;;;;;;4888718;28;87276;-70
2022/12/20 07:30:50;;;;;;;19.88;7.95;;;3.70;96.50;;;;;;4888050;28;86854;-70
2022/12/20 07:33:16;;;;;;;16.98;7.22;;;3.70;96.70;;;;;;4891622;28;87899;-70
2022/12/20 07:35:44;;;;;;;17.40;6.93;;;3.70;96.80;;;;;;4894173;28;86302;-70
2022/12/20 07:38:10;;;;;;;16.83;7.22;;;3.70;96.80;;;;;;4891443;28;87171;-71
2022/12/20 07:40:39;;;;;;;19.58;6.68;;;3.80;97.00;;;;;;4889080;28;87544;-70
2022/12/20 07:43:05;;;;;;;21.77;6.95;;;3.80;96.70;;;;;;4887142;28;86928;-70
2022/12/20 07:45:31;;;;;;;24.00;7.97;;;3.80;97.00;;;;;;4886656;28;86967;-70
2022/12/20 07:47:56;;;;;;;14.43;5.03;;;3.80;97.40;;;;;;4895299;28;88222;-70
2022/12/20 07:50:23;;;;;;;21.35;8.68;;;3.90;99.90;;;;;;4891040;28;87825;-70
2022/12/20 07:52:49;;;;;;;19.95;8.45;;;3.90;99.90;;;;;;4887122;28;86805;-70
2022/12/20 07:55:16;;;;;;;20.05;7.68;;;4.10;99.70;;;;;;4892829;28;86966;-70
2022/12/20 07:58:05;;;;;;;22.95;8.10;;;4.20;98.90;;;;;;4894570;28;88343;-70
2022/12/20 08:00:31;;;;;;;28.13;9.70;;;4.40;96.60;;;;;;4888090;28;87760;-70
2022/12/20 08:03:09;;;;;;;28.60;10.65;;;4.40;97.20;;;;;;4885116;28;86894;-71
2022/12/20 08:05:37;;;;;;;25.48;10.32;;;4.60;96.50;;;;;;4889811;28;86802;-71
2022/12/20 08:08:04;;;;;;;25.55;9.90;;;4.60;95.80;;;;;;4892057;28;87054;-70
2022/12/20 08:10:30;;;;;;;26.60;10.15;;;4.70;95.80;;;;;;4898177;28;87024;-70
2022/12/20 08:12:57;;;;;;;22.70;9.25;;;4.60;95.60;;;;;;4896830;28;86693;-69
2022/12/20 08:15:24;;;;;;;28.70;10.00;;;4.50;95.90;;;;;;4891208;28;86248;-70
2022/12/20 08:17:50;;;;;;;25.33;9.57;;;4.50;96.40;;;;;;4893843;28;86546;-70
2022/12/20 08:20:16;;;;;;;27.08;9.68;;;4.60;97.30;;;;;;4891560;28;86743;-69
2022/12/20 08:22:41;;;;;;;29.98;9.60;;;4.60;96.80;;;;;;4889788;28;87715;-70
2022/12/20 08:25:07;;;;;;;22.63;7.82;;;4.60;96.60;;;;;;4885475;28;87002;-70
2022/12/20 08:27:33;;;;;;;9.95;3.97;;;4.70;96.20;;;;;;4895610;28;86835;-70
2022/12/20 08:29:59;;;;;;;8.93;3.80;;;4.70;95.40;;;;;;4895279;28;86977;-70
2022/12/20 08:32:25;;;;;;;10.95;3.28;;;4.80;94.90;;;;;;4896503;28;86977;-70
2022/12/20 08:34:52;;;;;;;8.40;3.40;;;4.80;94.30;;;;;;4884417;28;86218;-70
2022/12/20 08:37:18;;;;;;;15.48;5.30;;;4.90;94.20;;;;;;4894568;28;86341;-71
2022/12/20 08:39:44;;;;;;;18.10;7.07;;;4.90;94.40;;;;;;4898852;28;86320;-70
2022/12/20 08:42:10;;;;;;;25.23;7.45;;;5.10;94.50;;;;;;4895850;28;86777;-70
2022/12/20 08:44:36;;;;;;;20.27;8.45;;;5.20;94.30;;;;;;4897720;28;86786;-70
2022/12/20 08:47:01;;;;;;;30.85;10.73;;;5.20;94.40;;;;;;4893426;28;88238;-69
2022/12/20 08:49:27;;;;;;;27.63;11.98;;;5.40;94.50;;;;;;4884818;28;90738;-70
2022/12/20 08:51:53;;;;;;;27.92;12.43;;;5.50;94.40;;;;;;4888372;28;86748;-70
2022/12/20 08:54:19;;;;;;;28.25;12.32;;;5.60;94.10;;;;;;4884917;28;86878;-70
2022/12/20 08:56:44;;;;;;;33.78;12.95;;;5.70;93.90;;;;;;4888662;28;87362;-71
2022/12/20 08:59:10;;;;;;;31.92;13.35;;;5.70;93.70;;;;;;4885585;28;86481;-70
2022/12/20 09:01:35;;;;;;;28.30;12.82;;;5.60;93.90;;;;;;4890295;28;86563;-68
2022/12/20 09:04:02;;;;;;;28.67;12.43;;;5.70;94.00;;;;;;4884021;28;85690;-70
2022/12/20 09:06:28;;;;;;;35.42;12.27;;;5.80;93.70;;;;;;4888880;28;87230;-67
2022/12/20 09:08:54;;;;;;;32.75;14.95;;;5.90;93.70;;;;;;4887338;28;86969;-70
2022/12/20 09:11:24;;;;;;;46.50;15.25;;;5.90;93.90;;;;;;4895019;28;87977;-70
2022/12/20 09:13:54;;;;;;;38.67;14.70;;;6.00;93.30;;;;;;4887591;28;86364;-70
2022/12/20 09:16:22;;;;;;;44.10;13.48;;;6.10;93.40;;;;;;4897547;28;86767;-70
2022/12/20 09:18:49;;;;;;;40.92;11.25;;;6.30;93.40;;;;;;4888893;28;87047;-70
2022/12/20 09:21:15;;;;;;;36.75;11.65;;;6.40;93.40;;;;;;4893168;28;87338;-70
2022/12/20 09:23:41;;;;;;;45.15;14.68;;;6.50;92.90;;;;;;4892150;28;86679;-70
2022/12/20 09:26:10;;;;;;;43.00;14.48;;;6.50;92.30;;;;;;4890281;28;86987;-69
2022/12/20 09:28:36;;;;;;;50.33;14.98;;;6.50;92.60;;;;;;4891366;28;86431;-70
2022/12/20 09:31:04;;;;;;;49.13;18.63;;;6.60;92.50;;;;;;4890071;28;86767;-71
2022/12/20 09:33:31;;;;;;;51.95;18.05;;;6.60;92.20;;;;;;4888726;28;86592;-70
2022/12/20 09:35:57;;;;;;;48.95;17.27;;;6.60;92.20;;;;;;4889066;28;88070;-69
2022/12/20 09:38:24;;;;;;;44.17;14.43;;;6.70;92.30;;;;;;4888246;28;87510;-70
2022/12/20 09:40:52;;;;;;;28.75;11.35;;;6.80;92.00;;;;;;4891416;28;86827;-70
2022/12/20 09:43:20;;;;;;;42.47;12.85;;;6.80;92.60;;;;;;4884742;28;87057;-70
2022/12/20 09:45:50;;;;;;;39.25;13.63;;;6.80;92.30;;;;;;4884960;28;88068;-70
2022/12/20 09:48:20;;;;;;;40.70;13.13;;;6.60;92.20;;;;;;4892647;28;86987;-69
2022/12/20 09:50:51;;;;;;;28.98;11.73;;;6.70;92.70;;;;;;4888696;28;86319;-70
2022/12/20 09:53:23;;;;;;;29.02;12.05;;;6.90;92.80;;;;;;4896942;28;86616;-69
2022/12/20 09:55:58;;;;;;;29.00;11.95;;;6.90;93.00;;;;;;4894861;28;86771;-70
2022/12/20 09:58:30;;;;;;;29.00;12.85;;;6.90;92.40;;;;;;4896043;28;86915;-70
2022/12/20 10:00:56;;;;;;;27.63;10.90;;;7.00;92.60;;;;;;4891672;28;87713;-71
2022/12/20 10:03:28;;;;;;;28.88;11.85;;;7.00;92.80;;;;;;4892807;28;87026;-70
2022/12/20 10:05:54;;;;;;;33.00;13.95;;;7.10;92.20;;;;;;4890733;28;87229;-70
2022/12/20 10:08:20;;;;;;;33.38;12.70;;;7.10;92.30;;;;;;4894465;28;87188;-70
2022/12/20 10:10:49;;;;;;;31.30;12.80;;;7.10;92.50;;;;;;4888858;28;86794;-70
2022/12/20 10:13:17;;;;;;;44.20;16.98;;;7.10;92.20;;;;;;4895439;28;87033;-70
2022/12/20 10:15:53;;;;;;;72.80;29.42;;;7.20;92.10;;;;;;4901411;28;87068;-70
2022/12/20 10:18:38;;;;;;;100.80;40.03;;;7.10;92.00;;;;;;4893472;28;86131;-70
2022/12/20 10:21:16;;;;;;;48.67;19.33;;;7.20;92.00;;;;;;4895795;28;86569;-70
2022/12/20 10:23:55;;;;;;;38.60;15.15;;;7.20;91.90;;;;;;4888976;28;86960;-69
2022/12/20 10:26:22;;;;;;;38.65;17.02;;;7.20;92.00;;;;;;4880667;28;88242;-70
2022/12/20 10:28:47;;;;;;;34.83;15.43;;;7.20;91.90;;;;;;4900626;28;89006;-69
2022/12/20 10:31:15;;;;;;;33.42;15.07;;;7.20;91.90;;;;;;4897518;28;86900;-70
2022/12/20 10:33:42;;;;;;;30.25;13.48;;;7.10;91.80;;;;;;4900972;28;86817;-70
2022/12/20 10:36:27;;;;;;;29.90;13.55;;;7.20;92.20;;;;;;4890886;28;87543;-70
2022/12/20 10:38:55;;;;;;;32.30;14.00;;;7.20;92.20;;;;;;4893360;28;87542;-70
2022/12/20 10:41:30;;;;;;;29.40;13.07;;;7.20;92.50;;;;;;4894663;28;86539;-70
2022/12/20 10:44:17;;;;;;;29.80;14.43;;;7.30;92.50;;;;;;4894757;28;85594;-69
2022/12/20 10:46:59;;;;;;;29.15;12.70;;;7.30;92.40;;;;;;4878103;28;89364;-69
2022/12/20 10:49:36;;;;;;;32.13;14.52;;;7.30;92.10;;;;;;4889007;28;87056;-70
2022/12/20 10:52:09;;;;;;;;;;;7.30;92.30;;;;;;4886392;28;87854;-68
2022/12/20 10:54:38;;;;;;;32.40;13.90;;;7.40;92.60;;;;;;4884245;28;86373;-69
2022/12/20 10:57:25;;;;;;;32.75;14.07;;;7.30;92.30;;;;;;4887314;28;87200;-68
2022/12/20 11:00:00;;;;;;;30.65;13.75;;;7.30;92.60;;;;;;4888940;28;88158;-69
2022/12/20 11:02:28;;;;;;;30.42;13.20;;;7.30;92.60;;;;;;4888688;28;86991;-71
2022/12/20 11:04:58;;;;;;;34.05;14.40;;;7.20;92.50;;;;;;4892448;28;86693;-71
2022/12/20 11:07:27;;;;;;;28.92;13.02;;;7.20;92.60;;;;;;4895705;28;86765;-68
2022/12/20 11:10:17;;;;;;;32.22;13.45;;;7.10;92.70;;;;;;4887949;28;87469;-70
2022/12/20 11:13:24;;;;;;;30.85;13.32;;;7.20;92.80;;;;;;4897852;28;86364;-70
2022/12/20 11:15:55;;;;;;;32.53;14.63;;;7.10;92.70;;;;;;4878330;28;86740;-70
2022/12/20 11:18:44;;;;;;;30.83;12.98;;;7.20;92.90;;;;;;4891882;28;88180;-71
2022/12/20 11:21:18;;;;;;;31.20;14.82;;;7.20;92.80;;;;;;4887871;28;87988;-70
2022/12/20 11:23:55;;;;;;;32.08;14.88;;;7.10;92.80;;;;;;4889657;28;86793;-70
2022/12/20 11:26:47;;;;;;;29.30;13.15;;;7.20;93.00;;;;;;4886546;28;87276;-70
2022/12/20 11:29:34;;;;;;;33.97;15.75;;;7.20;93.00;;;;;;4884028;28;86773;-71
2022/12/20 11:32:02;;;;;;;46.33;22.75;;;7.30;93.00;;;;;;4887239;28;86806;-71
2022/12/20 11:34:37;;;;;;;46.08;22.98;;;7.30;93.00;;;;;;4887316;28;88295;-69
2022/12/20 11:37:18;;;;;;;38.55;18.20;;;7.30;92.70;;;;;;4894976;28;85554;-71
2022/12/20 11:39:58;;;;;;;33.97;15.60;;;7.30;92.90;;;;;;4888569;28;87631;-71
2022/12/20 11:42:48;;;;;;;35.42;15.10;;;7.40;92.80;;;;;;4888359;28;87025;-70
2022/12/20 11:45:14;;;;;;;32.30;14.13;;;7.40;92.70;;;;;;4884340;28;89294;-70
2022/12/20 11:48:32;;;;;;;36.13;18.05;;;7.60;92.80;;;;;;4888140;28;86815;-71
2022/12/20 11:51:04;;;;;;;35.60;15.13;;;7.70;92.50;;;;;;4797700;29;88009;-68
2022/12/20 11:53:37;;;;;;;30.85;14.70;;;7.70;92.10;;;;;;4870413;28;88425;-68
2022/12/20 11:56:23;;;;;;;36.40;15.77;;;7.70;92.40;;;;;;4887521;28;87620;-71
2022/12/20 11:59:06;;;;;;;31.13;14.40;;;7.90;91.90;;;;;;4885283;28;86920;-70
2022/12/20 12:01:39;;;;;;;32.90;15.23;;;8.00;91.70;;;;;;4892163;28;87290;-70
2022/12/20 12:04:08;;;;;;;29.77;13.57;;;8.10;91.50;;;;;;4884557;28;86731;-71
2022/12/20 12:06:39;;;;;;;37.35;16.25;;;8.20;91.40;;;;;;4885115;28;87733;-70
2022/12/20 12:09:11;;;;;;;30.17;14.23;;;8.50;90.90;;;;;;4888595;28;86536;-71
2022/12/20 12:11:41;;;;;;;37.55;14.52;;;8.60;91.00;;;;;;4885136;28;87594;-69
2022/12/20 12:14:18;;;;;;;32.10;13.82;;;8.50;90.50;;;;;;4893179;28;87960;-68
2022/12/20 12:16:49;;;;;;;29.52;12.35;;;8.40;90.80;;;;;;4891706;28;87278;-68
2022/12/20 12:19:16;;;;;;;24.52;11.43;;;8.40;91.00;;;;;;4889662;28;86786;-70
2022/12/20 12:21:48;;;;;;;24.17;11.55;;;8.30;91.20;;;;;;4882460;28;87294;-71
2022/12/20 12:24:49;;;;;;;24.02;11.68;;;8.30;90.90;;;;;;4894168;28;87498;-70
2022/12/20 12:27:26;;;;;;;25.77;10.95;;;8.20;90.80;;;;;;4852696;28;86858;-70
2022/12/20 12:29:55;;;;;;;26.30;12.20;;;8.10;90.90;;;;;;4893868;28;86445;-70
2022/12/20 12:32:37;;;;;;;28.10;12.88;;;8.20;91.00;;;;;;4887584;28;86807;-70
2022/12/20 12:35:05;;;;;;;29.33;12.95;;;8.20;91.20;;;;;;4889517;28;87099;-70
2022/12/20 12:38:02;;;;;;;30.50;12.65;;;8.10;91.10;;;;;;4891387;28;87693;-70
2022/12/20 12:40:43;;;;;;;30.85;13.70;;;8.10;91.30;;;;;;4891649;28;86620;-71
2022/12/20 12:43:40;;;;;;;34.28;15.32;;;8.20;91.30;;;;;;4884274;28;87248;-70
2022/12/20 12:46:12;;;;;;;33.25;16.15;;;8.20;91.20;;;;;;4886591;28;87025;-70
2022/12/20 12:48:44;;;;;;;32.20;14.95;;;8.30;91.10;;;;;;4896959;28;86988;-70
2022/12/20 12:51:13;;;;;;;38.33;17.35;;;8.30;91.00;;;;;;4880362;28;87172;-71
2022/12/20 12:53:43;;;;;;;33.80;14.88;;;8.10;91.00;;;;;;4887444;28;87144;-70
2022/12/20 12:56:26;;;;;;;;;;;8.00;91.40;;;;;;4902099;28;87059;-70
2022/12/20 12:59:11;;;;;;;37.83;18.70;;;8.00;91.30;;;;;;4896573;28;87060;-70
2022/12/20 13:01:52;;;;;;;32.20;14.95;;;7.90;91.50;;;;;;4892901;28;86372;-70
2022/12/20 13:04:21;;;;;;;34.53;16.00;;;7.80;91.70;;;;;;4893287;28;87858;-70
2022/12/20 13:06:46;;;;;;;30.25;13.82;;;7.80;91.60;;;;;;4893489;28;88566;-71
2022/12/20 13:09:37;;;;;;;35.78;15.88;;;7.80;91.90;;;;;;4888341;28;86714;-70
2022/12/20 13:12:37;;;;;;;39.22;16.58;;;7.90;92.00;;;;;;4894691;28;87009;-70
2022/12/20 13:15:21;;;;;;;36.30;15.82;;;8.00;91.90;;;;;;4889362;28;86573;-71
2022/12/20 13:17:57;;;;;;;33.05;15.27;;;7.90;91.70;;;;;;4888936;28;87045;-70
2022/12/20 13:20:25;;;;;;;31.95;14.40;;;7.90;91.70;;;;;;4891537;28;87016;-70
2022/12/20 13:23:10;;;;;;;31.77;14.95;;;7.80;91.80;;;;;;4891730;28;86405;-70
2022/12/20 13:25:48;;;;;;;27.48;12.48;;;7.70;92.10;;;;;;4887748;28;86980;-70
2022/12/20 13:28:22;;;;;;;32.35;14.77;;;7.60;92.30;;;;;;4885679;28;86950;-69
2022/12/20 13:31:00;;;;;;;32.47;13.98;;;7.70;92.40;;;;;;4892514;28;87729;-70
2022/12/20 13:33:44;;;;;;;33.30;14.90;;;7.70;92.10;;;;;;4885848;28;87611;-70
2022/12/20 13:36:10;;;;;;;33.95;15.13;;;7.70;92.40;;;;;;4883312;28;87689;-70
2022/12/20 13:38:45;;;;;;;33.88;14.75;;;7.70;92.40;;;;;;4889011;28;86667;-70
2022/12/20 13:41:27;;;;;;;31.25;14.15;;;7.70;92.40;;;;;;4887668;28;86665;-70
2022/12/20 13:43:55;;;;;;;34.80;15.93;;;7.70;92.50;;;;;;4895245;28;87066;-71
2022/12/20 13:46:29;;;;;;;31.17;14.27;;;7.60;92.50;;;;;;4899677;28;87352;-70
2022/12/20 13:48:59;;;;;;;30.90;14.07;;;7.60;92.70;;;;;;4894970;28;86529;-69
2022/12/20 13:51:26;;;;;;;;;;;7.60;92.80;;;;;;4888777;28;86701;-70
2022/12/20 13:53:56;;;;;;;34.20;14.13;;;7.60;92.70;;;;;;4888720;28;88532;-70
2022/12/20 13:56:27;;;;;;;29.98;12.82;;;7.70;93.00;;;;;;4887184;28;87951;-70
2022/12/20 13:59:03;;;;;;;33.03;14.10;;;7.80;92.70;;;;;;4895747;28;87946;-71
2022/12/20 14:01:30;;;;;;;33.80;14.20;;;7.70;92.90;;;;;;4890860;28;86304;-70
2022/12/20 14:03:56;;;;;;;35.47;15.15;;;7.80;93.00;;;;;;4894084;28;86824;-70
2022/12/20 14:06:26;;;;;;;31.20;13.93;;;7.80;92.80;;;;;;4890625;28;86752;-70
2022/12/20 14:08:52;;;;;;;32.15;14.15;;;7.70;92.90;;;;;;4892921;28;87706;-70
2022/12/20 14:11:25;;;;;;;32.38;13.43;;;7.70;92.90;;;;;;4893673;28;87584;-70
2022/12/20 14:13:57;;;;;;;31.85;14.35;;;7.70;92.90;;;;;;4898307;28;85704;-71
2022/12/20 14:16:26;;;;;;;31.25;13.85;;;7.60;92.90;;;;;;4886947;28;87240;-70
2022/12/20 14:19:03;;;;;;;32.42;14.10;;;7.60;92.90;;;;;;4893874;28;87402;-70
2022/12/20 14:21:30;;;;;;;35.15;14.70;;;7.50;92.90;;;;;;4895411;28;87784;-70
2022/12/20 14:23:57;;;;;;;35.80;14.80;;;7.40;93.10;;;;;;4897904;28;86874;-70
2022/12/20 14:26:29;;;;;;;32.00;14.23;;;7.30;93.50;;;;;;4894039;28;87367;-70
2022/12/20 14:28:57;;;;;;;33.85;14.27;;;7.20;93.50;;;;;;4893710;28;86820;-70
2022/12/20 14:31:33;;;;;;;32.13;13.52;;;7.10;93.60;;;;;;4892272;28;86787;-70
2022/12/20 14:34:10;;;;;;;28.80;12.52;;;7.00;93.70;;;;;;4893415;28;86878;-70
2022/12/20 14:36:41;;;;;;;33.50;13.98;;;7.00;94.00;;;;;;4899916;28;87585;-69
2022/12/20 14:39:28;;;;;;;31.95;12.85;;;6.90;94.10;;;;;;4891316;28;87039;-70
2022/12/20 14:42:07;;;;;;;34.03;13.50;;;6.90;94.20;;;;;;4894854;28;86673;-69
2022/12/20 14:44:33;;;;;;;32.58;14.20;;;7.00;94.20;;;;;;4892461;28;86987;-70
2022/12/20 14:47:11;;;;;;;32.78;14.25;;;7.10;94.20;;;;;;4892522;28;87717;-70
2022/12/20 14:49:38;;;;;;;34.58;13.75;;;7.00;94.40;;;;;;4898347;28;87209;-69
2022/12/20 14:52:05;;;;;;;32.22;13.68;;;7.10;94.30;;;;;;4893793;28;86736;-71
2022/12/20 14:54:32;;;;;;;35.15;13.02;;;7.10;94.00;;;;;;4888976;28;86770;-70
2022/12/20 14:56:57;;;;;;;31.15;11.85;;;7.10;94.00;;;;;;4888940;28;86643;-70
2022/12/20 14:59:30;;;;;;;31.83;12.90;;;7.00;94.00;;;;;;4887852;28;87752;-70
2022/12/20 15:01:57;;;;;;;27.55;12.52;;;6.90;94.40;;;;;;4887162;28;86747;-70
2022/12/20 15:04:34;;;;;;;27.77;12.35;;;6.90;94.80;;;;;;4897309;28;85681;-70
2022/12/20 15:07:01;;;;;;;25.85;11.25;;;6.80;94.70;;;;;;4894946;28;87254;-70
2022/12/20 15:09:27;;;;;;;25.48;11.70;;;6.80;96.30;;;;;;4891110;28;87447;-70
2022/12/20 15:11:55;;;;;;;25.65;12.38;;;6.90;95.40;;;;;;4897552;28;87825;-70
2022/12/20 15:14:35;;;;;;;26.98;11.30;;;7.00;96.10;;;;;;4899171;28;86862;-70
2022/12/20 15:17:13;;;;;;;29.98;12.63;;;7.00;95.90;;;;;;4885408;28;87254;-69
2022/12/20 15:19:39;;;;;;;24.85;11.57;;;7.00;95.60;;;;;;4887784;28;87076;-70
2022/12/20 15:22:05;;;;;;;25.70;11.55;;;7.10;94.50;;;;;;4886668;28;86697;-70
2022/12/20 15:24:31;;;;;;;31.75;12.20;;;6.90;94.60;;;;;;4893201;28;86677;-70
2022/12/20 15:26:57;;;;;;;32.25;13.95;;;6.90;94.80;;;;;;4891196;28;86988;-69
2022/12/20 15:29:25;;;;;;;30.30;12.00;;;6.70;95.10;;;;;;4887265;28;86985;-70
2022/12/20 15:32:14;;;;;;;28.75;11.73;;;6.60;95.30;;;;;;4891548;28;86810;-70
2022/12/20 15:34:40;;;;;;;27.08;12.70;;;6.60;95.50;;;;;;4873942;28;86627;-70
2022/12/20 15:37:05;;;;;;;28.05;12.05;;;6.60;95.40;;;;;;4888844;28;88190;-70
2022/12/20 15:39:32;;;;;;;28.55;13.15;;;6.60;95.30;;;;;;4896171;28;87827;-70
2022/12/20 15:42:03;;;;;;;24.73;11.05;;;6.70;95.20;;;;;;4892064;28;86831;-71
2022/12/20 15:44:30;;;;;;;25.83;10.85;;;6.70;95.00;;;;;;4886322;28;86927;-71
2022/12/20 15:46:56;;;;;;;27.83;12.43;;;6.70;95.00;;;;;;4887674;28;87199;-71
2022/12/20 15:49:25;;;;;;;26.70;11.63;;;6.70;94.80;;;;;;4892034;28;87007;-70
2022/12/20 15:51:52;;;;;;;27.08;11.63;;;6.60;94.80;;;;;;4898139;28;87088;-70
2022/12/20 15:54:30;;;;;;;21.80;9.98;;;6.60;94.90;;;;;;4888541;28;86484;-70
2022/12/20 15:56:57;;;;;;;24.58;10.13;;;6.50;95.00;;;;;;4889334;28;88193;-70
2022/12/20 15:59:23;;;;;;;24.33;10.10;;;6.40;95.00;;;;;;4888255;28;87305;-70
2022/12/20 16:01:48;;;;;;;22.23;10.20;;;6.40;95.10;;;;;;4891637;28;88196;-70
2022/12/20 16:04:17;;;;;;;22.25;10.48;;;6.40;95.10;;;;;;4889455;28;87023;-70
2022/12/20 16:06:45;;;;;;;26.88;10.48;;;6.40;95.10;;;;;;4888505;28;87191;-71
2022/12/20 16:09:11;;;;;;;24.90;10.65;;;6.40;95.00;;;;;;4890154;28;86705;-71
2022/12/20 16:11:37;;;;;;;28.40;12.45;;;6.30;95.10;;;;;;4894855;28;88052;-70
2022/12/20 16:14:03;;;;;;;28.35;11.82;;;6.20;95.20;;;;;;4889298;28;86719;-71
2022/12/20 16:16:35;;;;;;;25.05;11.30;;;6.20;95.20;;;;;;4885994;28;87592;-71
2022/12/20 16:19:02;;;;;;;23.88;11.27;;;6.10;95.30;;;;;;4887413;28;87199;-70
2022/12/20 16:21:40;;;;;;;29.42;12.23;;;6.00;95.60;;;;;;4887026;28;86440;-70
2022/12/20 16:24:12;;;;;;;25.42;10.68;;;5.90;95.70;;;;;;4890778;28;86772;-71
2022/12/20 16:26:37;;;;;;;27.10;11.63;;;5.80;96.00;;;;;;4884429;28;88236;-71
2022/12/20 16:29:03;;;;;;;26.88;11.52;;;5.80;96.30;;;;;;4894041;28;87995;-71
2022/12/20 16:31:32;;;;;;;24.20;11.32;;;5.80;96.20;;;;;;4899423;28;87114;-71
2022/12/20 16:34:01;;;;;;;26.80;11.07;;;5.90;96.00;;;;;;4887759;28;86962;-71
2022/12/20 16:36:28;;;;;;;34.47;13.38;;;5.90;95.80;;;;;;4888236;28;86439;-71
2022/12/20 16:38:54;;;;;;;26.63;12.85;;;5.90;96.00;;;;;;4896366;28;88045;-71
2022/12/20 16:41:23;;;;;;;30.35;13.52;;;6.00;96.00;;;;;;4893546;28;86428;-70
2022/12/20 16:43:49;;;;;;;30.65;14.27;;;6.00;96.00;;;;;;4892842;28;86080;-71
2022/12/20 16:46:18;;;;;;;30.73;12.65;;;6.00;96.30;;;;;;4894358;28;87253;-71
2022/12/20 16:48:44;;;;;;;30.50;12.57;;;6.00;96.40;;;;;;4886533;28;86704;-71
2022/12/20 16:51:19;;;;;;;31.10;13.05;;;6.00;96.30;;;;;;4891434;28;88052;-71